Time;durP1;ratioP1;P1;durP2;ratioP2;P2;SDS_P1;SDS_P2;PMS_P1;PMS_P2;Temp;Humidity;BMP_temperature;BMP_pressure;BME280_temperature;BME280_humidity;BME280_pressure;Samples;Min_cycle;Max_cycle;Signal;HPM_P1;HPM_P2
2021/05/22 00:01:40;;;;;;;;;;;;;;;18.92;69.86;101098.00;5014803;28;1987;-60
2021/05/22 00:04:06;;;;;;;;;;;;;;;18.93;70.29;101088.97;5014536;28;960;-61
2021/05/22 00:06:32;;;;;;;;;;;;;;;18.93;70.14;101091.66;5017242;28;1064;-60
2021/05/22 00:08:59;;;;;;;;;;;;;;;18.94;69.76;101089.81;5018751;28;1224;-60
2021/05/22 00:11:25;;;;;;;;;;;;;;;18.90;70.02;101075.84;5018702;28;1115;-61
2021/05/22 00:13:51;;;;;;;;;;;;;;;18.91;69.92;101090.94;5018802;28;1089;-60
2021/05/22 00:16:17;;;;;;;;;;;;;;;18.93;69.87;101086.31;5018500;28;998;-61
2021/05/22 00:18:43;;;;;;;;;;;;;;;18.92;69.99;101084.63;5018757;28;1078;-59
2021/05/22 00:21:09;;;;;;;;;;;;;;;18.91;69.83;101088.25;5018489;28;1064;-60
2021/05/22 00:23:35;;;;;;;;;;;;;;;18.91;70.28;101095.47;5018710;28;2271;-60
2021/05/22 00:26:02;;;;;;;;;;;;;;;18.95;70.06;101102.25;5018631;28;1040;-60
2021/05/22 00:28:28;;;;;;;;;;;;;;;18.92;69.96;101091.78;5018604;28;1073;-60
2021/05/22 00:30:54;;;;;;;;;;;;;;;18.92;69.81;101087.31;5018310;28;1275;-60
2021/05/22 00:33:20;;;;;;;;;;;;;;;18.92;69.81;101092.66;5018469;28;1039;-59
2021/05/22 00:35:46;;;;;;;;;;;;;;;18.91;69.65;101095.47;5018217;28;1064;-60
2021/05/22 00:38:12;;;;;;;;;;;;;;;18.91;70.19;101084.75;5018378;28;1077;-61
2021/05/22 00:40:38;;;;;;;;;;;;;;;18.92;69.92;101097.13;5018074;28;1131;-61
2021/05/22 00:43:05;;;;;;;;;;;;;;;18.92;70.08;101107.88;5018278;28;1906;-60
2021/05/22 00:45:33;;;;;;;;;;;;;;;18.93;69.78;101101.53;5018356;28;1088;-59
2021/05/22 00:47:59;;;;;;;;;;;;;;;18.92;69.94;101102.50;5018247;28;979;-61
2021/05/22 00:50:26;;;;;;;;;;;;;;;18.93;69.76;101096.19;5018123;28;975;-60
2021/05/22 00:52:52;;;;;;;;;;;;;;;18.92;69.91;101098.00;5017866;28;1048;-60
2021/05/22 00:55:18;;;;;;;;;;;;;;;18.92;70.03;101116.78;5018179;28;1062;-60
2021/05/22 00:57:44;;;;;;;;;;;;;;;18.89;69.66;101103.63;5018068;28;1259;-61
2021/05/22 01:00:13;;;;;;;;;;;;;;;18.93;69.85;101121.13;5017252;28;1068;-60
2021/05/22 01:02:40;;;;;;;;;;;;;;;18.92;69.50;101119.47;5017568;28;1910;-60
2021/05/22 01:05:06;;;;;;;;;;;;;;;18.90;69.73;101094.63;5017606;28;1120;-60
2021/05/22 01:07:32;;;;;;;;;;;;;;;18.89;69.88;101106.28;5017937;28;1053;-60
2021/05/22 01:09:58;;;;;;;;;;;;;;;18.92;69.67;101108.72;5018395;28;1883;-60
2021/05/22 01:12:30;;;;;;;;;;;;;;;18.88;69.61;101101.94;5017963;28;1045;-60
2021/05/22 01:15:00;;;;;;;;;;;;;;;18.91;69.75;101098.97;5017814;28;1137;-60
2021/05/22 01:17:27;;;;;;;;;;;;;;;18.86;69.94;101106.53;5016672;28;1061;-60
2021/05/22 01:19:58;;;;;;;;;;;;;;;18.87;69.46;101105.56;5017334;28;1061;-60
2021/05/22 01:22:25;;;;;;;;;;;;;;;18.88;69.50;101107.28;5017168;28;1985;-60
2021/05/22 01:24:53;;;;;;;;;;;;;;;18.87;69.78;101090.34;5017537;28;1036;-60
2021/05/22 01:27:20;;;;;;;;;;;;;;;18.86;69.97;101104.72;5017374;28;1093;-60
2021/05/22 01:29:47;;;;;;;;;;;;;;;18.86;69.94;101114.56;5017053;28;1057;-61
2021/05/22 01:32:13;;;;;;;;;;;;;;;18.86;70.02;101110.09;5016870;28;1060;-60
2021/05/22 01:34:39;;;;;;;;;;;;;;;18.84;69.70;101105.81;5017371;28;1046;-60
2021/05/22 01:37:05;;;;;;;;;;;;;;;18.85;69.30;101118.25;5017373;28;1018;-59
2021/05/22 01:39:31;;;;;;;;;;;;;;;18.86;69.50;101104.72;5016975;28;1076;-59
2021/05/22 01:41:57;;;;;;;;;;;;;;;18.85;69.63;101110.22;5016891;28;1906;-60
2021/05/22 01:44:26;;;;;;;;;;;;;;;18.86;69.41;101114.56;5016939;28;1056;-61
2021/05/22 01:46:53;;;;;;;;;;;;;;;18.80;69.34;101086.47;5017140;28;949;-60
2021/05/22 01:49:20;;;;;;;;;;;;;;;18.83;69.83;101098.75;5016812;28;1028;-61
2021/05/22 01:51:47;;;;;;;;;;;;;;;18.84;69.84;101111.16;5017066;28;987;-60
2021/05/22 01:54:13;;;;;;;;;;;;;;;18.84;69.63;101100.44;5016722;28;1211;-60
2021/05/22 01:56:40;;;;;;;;;;;;;;;18.86;69.48;101104.72;5016975;28;979;-60
2021/05/22 01:59:06;;;;;;;;;;;;;;;18.85;69.68;101094.13;5016856;28;986;-59
2021/05/22 02:01:32;;;;;;;;;;;;;;;18.87;69.68;101100.22;5015846;28;1983;-60
2021/05/22 02:04:02;;;;;;;;;;;;;;;18.86;69.80;101110.09;5016448;28;1305;-61
2021/05/22 02:06:29;;;;;;;;;;;;;;;18.86;69.36;101103.84;5016763;28;1055;-60
2021/05/22 02:08:57;;;;;;;;;;;;;;;18.86;69.77;101101.16;5016747;28;1061;-60
2021/05/22 02:11:25;;;;;;;;;;;;;;;18.87;69.50;101097.53;5016644;28;1065;-60
2021/05/22 02:13:52;;;;;;;;;;;;;;;18.84;69.72;101100.44;5016861;28;1059;-61
2021/05/22 02:16:22;;;;;;;;;;;;;;;18.85;69.45;101099.50;5016664;28;1019;-59
2021/05/22 02:18:49;;;;;;;;;;;;;;;18.83;69.41;101082.69;5016615;28;1066;-60
2021/05/22 02:21:15;;;;;;;;;;;;;;;18.83;69.63;101086.22;5016174;28;1219;-60
2021/05/22 02:23:44;;;;;;;;;;;;;;;18.81;69.64;101082.81;5016442;28;1902;-60
2021/05/22 02:26:10;;;;;;;;;;;;;;;18.80;69.69;101088.28;5016385;28;991;-59
2021/05/22 02:28:39;;;;;;;;;;;;;;;18.83;69.39;101093.41;5016264;28;1050;-60
2021/05/22 02:31:05;;;;;;;;;;;;;;;18.81;69.45;101096.22;5016389;28;987;-60
2021/05/22 02:33:31;;;;;;;;;;;;;;;18.84;69.41;101098.66;5015981;28;1036;-59
2021/05/22 02:35:59;;;;;;;;;;;;;;;18.82;69.48;101092.56;5016284;28;1049;-60
2021/05/22 02:38:26;;;;;;;;;;;;;;;18.82;69.38;101102.41;5016209;28;1864;-60
2021/05/22 02:40:54;;;;;;;;;;;;;;;18.83;69.72;101104.97;5015877;28;1084;-60
2021/05/22 02:43:20;;;;;;;;;;;;;;;18.80;69.07;101094.53;5016119;28;1973;-60
2021/05/22 02:45:47;;;;;;;;;;;;;;;18.81;69.45;101100.72;5015732;28;1115;-60
2021/05/22 02:48:16;;;;;;;;;;;;;;;18.78;69.52;101093.75;5015774;28;1108;-60
2021/05/22 02:50:44;;;;;;;;;;;;;;;18.82;69.88;101108.63;5016105;28;1058;-60
2021/05/22 02:53:12;;;;;;;;;;;;;;;18.79;69.48;101097.28;5015978;28;1015;-60
2021/05/22 02:55:38;;;;;;;;;;;;;;;18.81;69.30;101101.56;5015939;28;967;-59
2021/05/22 02:58:04;;;;;;;;;;;;;;;18.81;69.38;101100.72;5015608;28;1104;-60
2021/05/22 03:00:32;;;;;;;;;;;;;;;18.77;69.71;101109.97;5015832;28;1039;-61
2021/05/22 03:02:58;;;;;;;;;;;;;;;18.76;69.05;101117.16;5015292;28;1991;-61
2021/05/22 03:05:24;;;;;;;;;;;;;;;18.75;69.37;101123.47;5013657;28;1573;-61
2021/05/22 03:07:50;;;;;;;;;;;;;;;18.77;69.69;101126.03;5015412;28;1139;-60
2021/05/22 03:10:18;;;;;;;;;;;;;;;18.79;69.36;101127.63;5014541;28;989;-59
2021/05/22 03:12:44;;;;;;;;;;;;;;;18.81;69.30;101128.34;5015339;28;1112;-59
2021/05/22 03:15:10;;;;;;;;;;;;;;;18.83;69.48;101130.91;5015515;28;1003;-60
2021/05/22 03:17:37;;;;;;;;;;;;;;;18.83;69.61;101130.91;5015941;28;943;-59
2021/05/22 03:20:03;;;;;;;;;;;;;;;18.84;69.48;101143.31;5015484;28;1012;-61
2021/05/22 03:22:29;;;;;;;;;;;;;;;18.85;69.09;101135.16;5015447;28;1906;-59
2021/05/22 03:24:55;;;;;;;;;;;;;;;18.82;69.36;101129.19;5015402;28;1058;-60
2021/05/22 03:27:22;;;;;;;;;;;;;;;18.83;69.35;101134.44;5015206;28;1065;-59
2021/05/22 03:29:48;;;;;;;;;;;;;;;18.85;69.23;101139.69;5015454;28;1035;-60
2021/05/22 03:32:14;;;;;;;;;;;;;;;18.85;68.81;101139.69;5015329;28;1022;-60
2021/05/22 03:34:40;;;;;;;;;;;;;;;18.82;69.44;101124.72;5015383;28;1046;-60
2021/05/22 03:37:06;;;;;;;;;;;;;;;18.85;69.15;101128.97;5015003;28;1064;-61
2021/05/22 03:39:32;;;;;;;;;;;;;;;18.86;69.53;101122.63;5014730;28;1032;-60
2021/05/22 03:41:58;;;;;;;;;;;;;;;18.88;68.50;101140.28;5014546;28;1975;-59
2021/05/22 03:44:25;;;;;;;;;;;;;;;18.89;68.72;101133.09;5015219;28;1059;-59
2021/05/22 03:46:51;;;;;;;;;;;;;;;18.90;69.24;101148.22;5015192;28;1050;-60
2021/05/22 03:49:17;;;;;;;;;;;;;;;18.91;68.73;101133.81;5015284;28;1008;-59
2021/05/22 03:51:43;;;;;;;;;;;;;;;18.92;68.82;101142.69;5014819;28;1064;-61
2021/05/22 03:54:09;;;;;;;;;;;;;;;18.99;68.88;101149.28;5015115;28;1078;-60
2021/05/22 03:56:35;;;;;;;;;;;;;;;18.97;68.19;101138.66;5015123;28;976;-61
2021/05/22 03:59:01;;;;;;;;;;;;;;;19.01;68.83;101142.78;5014790;28;1068;-60
2021/05/22 04:01:28;;;;;;;;;;;;;;;19.02;68.66;101139.16;5014620;28;1531;-60
2021/05/22 04:03:54;;;;;;;;;;;;;;;19.02;68.69;101131.13;5014728;28;1911;-60
2021/05/22 04:06:20;;;;;;;;;;;;;;;19.07;68.55;101139.59;5014891;28;1062;-59
2021/05/22 04:08:46;;;;;;;;;;;;;;;19.08;68.25;101138.66;5014962;28;1042;-59
2021/05/22 04:11:12;;;;;;;;;;;;;;;19.09;68.06;101131.44;5014558;28;1115;-60
2021/05/22 04:13:38;;;;;;;;;;;;;;;19.13;67.76;101126.69;5014920;28;979;-60
2021/05/22 04:16:04;;;;;;;;;;;;;;;19.15;68.37;101141.66;5014878;28;1050;-60
2021/05/22 04:18:31;;;;;;;;;;;;;;;19.21;67.51;101137.63;5014369;28;1069;-61
2021/05/22 04:20:57;;;;;;;;;;;;;;;19.25;67.46;101144.44;5014368;28;980;-60
2021/05/22 04:23:23;;;;;;;;;;;;;;;19.30;67.30;101136.00;5014102;28;1906;-60
2021/05/22 04:25:49;;;;;;;;;;;;;;;19.33;67.14;101128.53;5014597;28;992;-60
2021/05/22 04:28:15;;;;;;;;;;;;;;;19.38;66.93;101145.13;5015135;28;978;-61
2021/05/22 04:30:41;;;;;;;;;;;;;;;19.42;67.39;101153.75;5014725;28;1048;-60
2021/05/22 04:33:07;;;;;;;;;;;;;;;19.43;67.13;101156.28;5014723;28;1071;-59
2021/05/22 04:35:34;;;;;;;;;;;;;;;19.44;66.80;101152.63;5014730;28;972;-60
2021/05/22 04:38:00;;;;;;;;;;;;;;;19.43;66.82;101156.28;5014471;28;1057;-59
2021/05/22 04:40:26;;;;;;;;;;;;;;;19.43;66.93;101172.38;5014899;28;983;-60
2021/05/22 04:42:52;;;;;;;;;;;;;;;19.42;66.75;101154.59;5014771;28;1977;-60
2021/05/22 04:45:18;;;;;;;;;;;;;;;19.43;67.23;101160.81;5014684;28;1047;-59
2021/05/22 04:47:44;;;;;;;;;;;;;;;19.44;67.43;101158.00;5014480;28;976;-60
2021/05/22 04:50:11;;;;;;;;;;;;;;;19.45;67.47;101166.91;5014460;28;1052;-60
2021/05/22 04:52:39;;;;;;;;;;;;;;;19.41;66.84;101171.66;5016756;28;1017;-60
2021/05/22 04:55:05;;;;;;;;;;;;;;;19.38;67.40;101179.97;5017854;28;1024;-60
2021/05/22 04:57:31;;;;;;;;;;;;;;;19.38;67.01;101174.63;5018117;28;1004;-60
2021/05/22 04:59:57;;;;;;;;;;;;;;;19.33;67.07;101184.84;5017779;28;1143;-60
2021/05/22 05:02:23;;;;;;;;;;;;;;;19.33;67.20;101184.00;5017375;28;1985;-60
2021/05/22 05:04:49;;;;;;;;;;;;;;;19.31;67.62;101197.53;5017673;28;1061;-60
2021/05/22 05:07:15;;;;;;;;;;;;;;;19.29;67.62;101196.81;5017596;28;939;-61
2021/05/22 05:09:43;;;;;;;;;;;;;;;19.29;67.66;101204.88;5017877;28;984;-60
2021/05/22 05:12:09;;;;;;;;;;;;;;;19.25;67.59;101201.56;5017900;28;968;-60
2021/05/22 05:14:35;;;;;;;;;;;;;;;19.25;68.22;101196.22;5017744;28;972;-60
2021/05/22 05:17:01;;;;;;;;;;;;;;;19.21;68.41;101188.56;5017508;28;1052;-60
2021/05/22 05:19:28;;;;;;;;;;;;;;;19.22;67.61;101190.28;5017478;28;1064;-60
2021/05/22 05:21:55;;;;;;;;;;;;;;;19.21;67.88;101189.41;5017299;28;1976;-60
2021/05/22 05:24:21;;;;;;;;;;;;;;;19.23;67.69;101203.53;5017355;28;1103;-61
2021/05/22 05:26:48;;;;;;;;;;;;;;;19.22;67.64;101192.97;5017943;28;1074;-61
2021/05/22 05:29:14;;;;;;;;;;;;;;;19.21;67.81;101183.19;5017576;28;1068;-60
2021/05/22 05:31:40;;;;;;;;;;;;;;;19.25;68.58;101192.69;5017517;28;1059;-61
2021/05/22 05:34:06;;;;;;;;;;;;;;;19.23;67.64;101198.16;5017316;28;1019;-61
2021/05/22 05:36:32;;;;;;;;;;;;;;;19.26;67.47;101210.50;5017107;28;1056;-60
2021/05/22 05:38:58;;;;;;;;;;;;;;;19.21;68.25;101200.13;5017275;28;995;-61
2021/05/22 05:41:24;;;;;;;;;;;;;;;19.21;67.83;101194.78;5017007;28;1115;-60
2021/05/22 05:43:51;;;;;;;;;;;;;;;19.22;67.64;101214.41;5017229;28;1976;-60
2021/05/22 05:46:17;;;;;;;;;;;;;;;19.23;67.88;101213.41;5017214;28;1453;-60
2021/05/22 05:48:43;;;;;;;;;;;;;;;19.23;67.81;101222.31;5017149;28;980;-59
2021/05/22 05:51:09;;;;;;;;;;;;;;;19.25;67.96;101223.03;5016753;28;1128;-60
2021/05/22 05:53:35;;;;;;;;;;;;;;;19.25;67.87;101216.81;5017100;28;963;-61
2021/05/22 05:56:01;;;;;;;;;;;;;;;19.29;67.60;101218.28;5017010;28;1049;-60
2021/05/22 05:58:27;;;;;;;;;;;;;;;19.33;67.68;101219.72;5017030;28;984;-59
2021/05/22 06:00:54;;;;;;;;;;;;;;;19.33;67.62;101218.88;5016828;28;1099;-59
2021/05/22 06:03:26;;;;;;;;;;;;;;;19.31;67.69;101221.69;5016005;28;1906;-60
2021/05/22 06:05:53;;;;;;;;;;;;;;;19.30;67.92;101220.00;5015805;28;1021;-60
2021/05/22 06:08:19;;;;;;;;;;;;;;;19.30;68.37;101208.38;5016779;28;1042;-60
2021/05/22 06:10:47;;;;;;;;;;;;;;;19.26;68.25;101213.19;5016396;28;1056;-60
2021/05/22 06:13:21;;;;;;;;;;;;;;;19.24;67.69;101199.03;5015144;28;1208;-61
2021/05/22 06:15:49;;;;;;;;;;;;;;;19.27;68.06;101212.19;5016564;28;980;-60
2021/05/22 06:18:16;;;;;;;;;;;;;;;19.26;68.10;101207.81;5016585;28;964;-60
2021/05/22 06:20:42;;;;;;;;;;;;;;;19.24;68.08;101207.94;5016536;28;1011;-60
2021/05/22 06:23:08;;;;;;;;;;;;;;;19.24;68.28;101193.69;5016123;28;1973;-60
2021/05/22 06:25:34;;;;;;;;;;;;;;;19.27;68.26;101210.34;5016230;28;931;-60
2021/05/22 06:28:00;;;;;;;;;;;;;;;19.25;68.20;101200.72;5016348;28;1058;-60
2021/05/22 06:30:26;;;;;;;;;;;;;;;19.26;68.08;101203.28;5016053;28;1104;-61
2021/05/22 06:32:52;;;;;;;;;;;;;;;19.29;67.61;101204.88;5015945;28;1025;-59
2021/05/22 06:35:19;;;;;;;;;;;;;;;19.28;67.83;101201.34;5016261;28;996;-60
2021/05/22 06:37:45;;;;;;;;;;;;;;;19.25;67.99;101195.38;5016690;28;1892;-61
2021/05/22 06:40:12;;;;;;;;;;;;;;;19.27;68.24;101193.41;5015808;28;1036;-61
2021/05/22 06:42:38;;;;;;;;;;;;;;;19.26;68.05;101187.22;5016133;28;1902;-60
2021/05/22 06:45:08;;;;;;;;;;;;;;;19.30;68.48;101192.31;5016187;28;987;-61
2021/05/22 06:47:34;;;;;;;;;;;;;;;19.27;68.07;101201.47;5015806;28;1028;-60
2021/05/22 06:50:00;;;;;;;;;;;;;;;19.28;67.87;101195.13;5016029;28;1077;-60
2021/05/22 06:52:27;;;;;;;;;;;;;;;19.28;67.84;101189.78;5016060;28;983;-60
2021/05/22 06:54:53;;;;;;;;;;;;;;;19.25;68.41;101179.28;5015651;28;1087;-60
2021/05/22 06:57:19;;;;;;;;;;;;;;;19.28;67.96;101182.56;5015923;28;1030;-61
2021/05/22 06:59:46;;;;;;;;;;;;;;;19.28;67.99;101179.03;5015796;28;983;-60
2021/05/22 07:02:12;;;;;;;;;;;;;;;19.31;68.09;101180.59;5015429;28;1975;-59
2021/05/22 07:04:38;;;;;;;;;;;;;;;19.28;68.13;101179.88;5015462;28;1056;-60
2021/05/22 07:07:05;;;;;;;;;;;;;;;19.29;68.60;101186.09;5015729;28;971;-60
2021/05/22 07:09:32;;;;;;;;;;;;;;;19.30;68.58;101185.13;5015768;28;931;-61
2021/05/22 07:11:58;;;;;;;;;;;;;;;19.30;68.18;101182.44;5015419;28;1024;-60
2021/05/22 07:14:25;;;;;;;;;;;;;;;19.31;68.33;101177.94;5015140;28;1029;-60
2021/05/22 07:16:52;;;;;;;;;;;;;;;19.32;68.45;101191.22;5014825;28;1028;-61
2021/05/22 07:19:18;;;;;;;;;;;;;;;19.32;67.61;101172.44;5015622;28;1054;-59
2021/05/22 07:21:44;;;;;;;;;;;;;;;19.35;68.04;101190.94;5015470;28;1008;-60
2021/05/22 07:24:10;;;;;;;;;;;;;;;19.36;68.15;101192.66;5014275;28;1906;-59
2021/05/22 07:26:37;;;;;;;;;;;;;;;19.34;67.64;101188.38;5015022;28;974;-60
2021/05/22 07:29:03;;;;;;;;;;;;;;;19.34;67.78;101178.53;5015129;28;935;-60
2021/05/22 07:31:32;;;;;;;;;;;;;;;19.30;68.08;101179.75;5014998;28;916;-60
2021/05/22 07:33:58;;;;;;;;;;;;;;;19.35;68.14;101182.91;5014918;28;1025;-60
2021/05/22 07:36:24;;;;;;;;;;;;;;;19.32;67.83;101191.22;5015330;28;996;-60
2021/05/22 07:38:50;;;;;;;;;;;;;;;19.32;67.84;101182.28;5015230;28;983;-60
2021/05/22 07:41:16;;;;;;;;;;;;;;;19.32;67.83;101180.50;5014876;28;1119;-60
2021/05/22 07:43:43;;;;;;;;;;;;;;;19.31;67.81;101176.09;5014911;28;1975;-60
2021/05/22 07:46:09;;;;;;;;;;;;;;;19.33;68.40;101179.50;5014882;28;1061;-61
2021/05/22 07:48:35;;;;;;;;;;;;;;;19.32;68.09;101169.75;5014989;28;1070;-59
2021/05/22 07:51:01;;;;;;;;;;;;;;;19.33;68.28;101176.81;5015316;28;1058;-60
2021/05/22 07:53:27;;;;;;;;;;;;;;;19.32;67.99;101158.16;5015145;28;978;-59
2021/05/22 07:55:54;;;;;;;;;;;;;;;19.33;67.75;101170.59;5014855;28;1103;-61
2021/05/22 07:58:20;;;;;;;;;;;;;;;19.30;67.87;101166.34;5015199;28;1019;-60
2021/05/22 08:00:48;;;;;;;;;;;;;;;19.33;68.13;101159.88;5015354;28;1050;-60
2021/05/22 08:03:14;;;;;;;;;;;;;;;19.28;68.60;101152.22;5014604;28;1910;-60
2021/05/22 08:05:40;;;;;;;;;;;;;;;19.32;68.06;101159.03;5014708;28;1045;-61
2021/05/22 08:08:06;;;;;;;;;;;;;;;19.32;67.91;101155.47;5014954;28;1035;-61
2021/05/22 08:10:32;;;;;;;;;;;;;;;19.30;68.02;101155.63;5014722;28;1056;-60
2021/05/22 08:12:59;;;;;;;;;;;;;;;19.30;68.29;101152.94;5014693;28;1056;-60
2021/05/22 08:15:25;;;;;;;;;;;;;;;19.30;68.38;101158.31;5014888;28;979;-59
2021/05/22 08:17:52;;;;;;;;;;;;;;;19.30;68.43;101166.34;5014642;28;1048;-61
2021/05/22 08:20:18;;;;;;;;;;;;;;;19.28;67.97;101171.84;5014593;28;1053;-60
2021/05/22 08:22:45;;;;;;;;;;;;;;;19.34;68.24;101174.97;5014798;28;1906;-60
2021/05/22 08:25:11;;;;;;;;;;;;;;;19.30;68.28;101182.44;5014549;28;1075;-60
2021/05/22 08:27:37;;;;;;;;;;;;;;;19.31;68.13;101175.25;5017284;28;1049;-60
2021/05/22 08:30:04;;;;;;;;;;;;;;;19.33;68.11;101175.97;5018344;28;1104;-60
2021/05/22 08:32:30;;;;;;;;;;;;;;;19.36;67.73;101167.66;5018686;28;1045;-60
2021/05/22 08:34:57;;;;;;;;;;;;;;;19.33;67.99;101174.13;5018517;28;983;-61
2021/05/22 08:37:24;;;;;;;;;;;;;;;19.35;68.60;101179.38;5018580;28;1053;-60
2021/05/22 08:39:50;;;;;;;;;;;;;;;19.33;68.11;101174.13;5018484;28;1007;-60
2021/05/22 08:42:19;;;;;;;;;;;;;;;19.35;68.27;101169.50;5018033;28;1903;-61
2021/05/22 08:44:45;;;;;;;;;;;;;;;19.34;67.70;101166.94;5018425;28;1012;-60
2021/05/22 08:47:11;;;;;;;;;;;;;;;19.31;67.79;101157.31;5018053;28;1116;-60
2021/05/22 08:49:43;;;;;;;;;;;;;;;19.33;68.56;101166.09;5018032;28;1033;-60
2021/05/22 08:52:11;;;;;;;;;;;;;;;19.34;68.26;101164.25;5018172;28;993;-60
2021/05/22 08:54:38;;;;;;;;;;;;;;;19.35;67.97;101169.50;5017946;28;1029;-60
2021/05/22 08:57:04;;;;;;;;;;;;;;;19.32;68.23;101153.69;5017839;28;1056;-60
2021/05/22 08:59:30;;;;;;;;;;;;;;;19.33;67.80;101154.53;5018049;28;1033;-59
2021/05/22 09:01:57;;;;;;;;;;;;;;;19.32;67.78;101156.34;5017727;28;1482;-61
2021/05/22 09:04:23;;;;;;;;;;;;;;;19.32;67.76;101152.81;5017069;28;1902;-61
2021/05/22 09:06:58;;;;;;;;;;;;;;;19.32;67.93;101142.06;5016794;28;1051;-60
2021/05/22 09:09:38;;;;;;;;;;;;;;;19.34;68.11;101151.72;5017614;28;1110;-59
2021/05/22 09:12:04;;;;;;;;;;;;;;;19.34;68.02;101135.63;5017849;28;971;-60
2021/05/22 09:14:40;;;;;;;;;;;;;;;19.34;68.08;101146.34;5017736;28;998;-60
2021/05/22 09:17:07;;;;;;;;;;;;;;;19.32;68.80;101140.25;5017516;28;1048;-61
2021/05/22 09:19:33;;;;;;;;;;;;;;;19.31;68.39;101130.50;5017700;28;988;-61
2021/05/22 09:21:58;;;;;;;;;;;;;;;19.31;67.80;101125.13;5017725;28;1016;-59
2021/05/22 09:24:24;;;;;;;;;;;;;;;19.35;67.87;101140.00;5017332;28;1906;-61
2021/05/22 09:26:52;;;;;;;;;;;;;;;19.31;67.93;101125.13;5016624;28;1431;-60
2021/05/22 09:29:23;;;;;;;;;;;;;;;19.32;68.52;101134.03;5017603;28;978;-61
2021/05/22 09:31:49;;;;;;;;;;;;;;;19.32;67.82;101124.19;5017459;28;1207;-60
2021/05/22 09:34:27;;;;;;;;;;;;;;;19.33;67.86;101120.50;5017351;28;987;-60
2021/05/22 09:36:53;;;;;;;;;;;;;;;19.30;67.86;101123.47;5017157;28;1045;-61
2021/05/22 09:39:19;;;;;;;;;;;;;;;19.33;67.97;101119.66;5016183;28;1024;-60
2021/05/22 09:41:45;;;;;;;;;;;;;;;19.32;67.80;101132.22;5017255;28;1008;-61
2021/05/22 09:44:13;;;;;;;;;;;;;;;19.30;67.92;101126.13;5016941;28;1973;-59
2021/05/22 09:46:54;;;;;;;;;;;;;;;19.33;68.22;101130.38;5017291;28;1007;-60
2021/05/22 09:49:21;;;;;;;;;;;;;;;19.34;68.68;101132.94;5016738;28;1832;-60
2021/05/22 09:51:56;;;;;;;;;;;;;;;19.32;68.05;101124.19;5017143;28;1040;-61
2021/05/22 09:54:38;;;;;;;;;;;;;;;19.32;68.16;101121.50;5016824;28;1064;-61
2021/05/22 09:57:04;;;;;;;;;;;;;;;19.33;68.18;101120.50;5016757;28;1997;-61
2021/05/22 09:59:31;;;;;;;;;;;;;;;19.33;68.11;101108.94;5016654;28;932;-60
2021/05/22 10:01:58;;;;;;;;;;;;;;;19.33;68.17;101112.47;5016574;28;1388;-61
2021/05/22 10:04:24;;;;;;;;;;;;;;;19.34;67.78;101116.84;5016767;28;1978;-60
2021/05/22 10:06:51;;;;;;;;;;;;;;;19.32;67.90;101108.09;5016812;28;935;-60
2021/05/22 10:09:17;;;;;;;;;;;;;;;19.33;67.92;101101.72;5016817;28;987;-61
2021/05/22 10:12:03;;;;;;;;;;;;;;;19.33;68.00;101107.09;5016570;28;1995;-61
2021/05/22 10:14:31;;;;;;;;;;;;;;;19.33;68.00;101101.72;5016694;28;984;-60
2021/05/22 10:16:58;;;;;;;;;;;;;;;19.33;68.20;101096.38;5015645;28;1045;-60
2021/05/22 10:19:26;;;;;;;;;;;;;;;19.34;68.42;101082.00;5015662;28;1053;-60
2021/05/22 10:21:52;;;;;;;;;;;;;;;19.33;68.12;101092.84;5016189;28;1047;-60
2021/05/22 10:24:18;;;;;;;;;;;;;;;19.32;67.77;101083.94;5015652;28;1902;-60
2021/05/22 10:26:45;;;;;;;;;;;;;;;19.31;68.18;101086.75;5015733;28;1044;-61
2021/05/22 10:29:11;;;;;;;;;;;;;;;19.32;68.49;101067.88;5015685;28;1089;-60
2021/05/22 10:31:38;;;;;;;;;;;;;;;19.31;68.72;101074.19;5015909;28;986;-61
2021/05/22 10:34:09;;;;;;;;;;;;;;;19.30;68.17;101064.47;5015962;28;1171;-60
2021/05/22 10:36:45;;;;;;;;;;;;;;;19.33;67.98;101063.34;5015514;28;1060;-60
2021/05/22 10:39:25;;;;;;;;;;;;;;;19.33;68.56;101066.88;5015417;28;1077;-60
2021/05/22 10:41:51;;;;;;;;;;;;;;;19.33;67.81;101064.19;5015257;28;1705;-60
2021/05/22 10:44:26;;;;;;;;;;;;;;;19.33;68.61;101066.88;5015616;28;1906;-59
2021/05/22 10:47:06;;;;;;;;;;;;;;;19.30;68.88;101048.38;5016111;28;1074;-60
2021/05/22 10:49:51;;;;;;;;;;;;;;;19.33;68.22;101063.34;5016013;28;971;-60
2021/05/22 10:52:19;;;;;;;;;;;;;;;19.33;67.80;101052.63;5015867;28;1878;-60
2021/05/22 10:54:58;;;;;;;;;;;;;;;19.31;67.91;101044.69;5016046;28;896;-61
2021/05/22 10:57:24;;;;;;;;;;;;;;;19.32;67.90;101042.84;5015682;28;1300;-60
2021/05/22 11:00:09;;;;;;;;;;;;;;;19.31;68.16;101039.34;5015599;28;1048;-60
2021/05/22 11:02:35;;;;;;;;;;;;;;;19.34;67.85;101038.22;5015447;28;1950;-60
2021/05/22 11:05:16;;;;;;;;;;;;;;;19.29;67.75;101038.63;5015567;28;1024;-61
2021/05/22 11:07:43;;;;;;;;;;;;;;;19.37;67.83;101037.97;5015428;28;1723;-59
2021/05/22 11:10:09;;;;;;;;;;;;;;;19.35;68.26;101030.03;5015717;28;1011;-61
2021/05/22 11:12:46;;;;;;;;;;;;;;;19.34;68.07;101017.63;5015416;28;1096;-60
2021/05/22 11:15:42;;;;;;;;;;;;;;;19.31;67.87;101020.56;5015642;28;1027;-60
2021/05/22 11:18:10;;;;;;;;;;;;;;;19.33;68.48;101029.31;5015691;28;1012;-61
2021/05/22 11:20:37;;;;;;;;;;;;;;;19.32;67.85;101016.03;5015570;28;1000;-60
2021/05/22 11:23:04;;;;;;;;;;;;;;;19.32;68.20;101014.25;5015441;28;1906;-59
2021/05/22 11:25:51;;;;;;;;;;;;;;;19.33;68.15;100999.84;5015545;28;1072;-60
2021/05/22 11:28:20;;;;;;;;;;;;;;;19.35;68.37;101000.53;5015460;28;978;-60
2021/05/22 11:30:50;;;;;;;;;;;;;;;19.35;68.43;101002.38;5015509;28;987;-60
2021/05/22 11:33:29;;;;;;;;;;;;;;;19.30;67.96;100984.03;5015387;28;1047;-60
2021/05/22 11:35:57;;;;;;;;;;;;;;;19.34;67.92;100996.19;5015387;28;1042;-60
2021/05/22 11:38:31;;;;;;;;;;;;;;;19.35;68.36;100986.31;5015400;28;1059;-61
2021/05/22 11:40:58;;;;;;;;;;;;;;;19.34;67.96;100985.47;5015277;28;1043;-61
2021/05/22 11:43:29;;;;;;;;;;;;;;;19.34;67.97;100979.22;5014935;28;1906;-60
2021/05/22 11:45:56;;;;;;;;;;;;;;;19.34;67.89;100966.69;5014922;28;1017;-60
2021/05/22 11:48:22;;;;;;;;;;;;;;;19.33;68.65;100962.28;5014927;28;1088;-60
2021/05/22 11:50:49;;;;;;;;;;;;;;;19.34;67.77;100966.69;5014853;28;1048;-61
2021/05/22 11:53:15;;;;;;;;;;;;;;;19.34;68.18;100960.44;5015224;28;1042;-59
2021/05/22 11:55:42;;;;;;;;;;;;;;;19.36;68.25;100961.16;5015168;28;984;-60
2021/05/22 11:58:11;;;;;;;;;;;;;;;19.32;68.09;100954.38;5015130;28;996;-61
2021/05/22 12:00:37;;;;;;;;;;;;;;;19.33;67.86;100956.94;5015139;28;975;-60
2021/05/22 12:03:03;;;;;;;;;;;;;;;19.33;67.96;100954.25;5018010;28;1965;-61
2021/05/22 12:05:36;;;;;;;;;;;;;;;19.34;68.60;100964.00;5017253;28;1399;-61
2021/05/22 12:08:02;;;;;;;;;;;;;;;19.33;68.29;100953.41;5018998;28;1053;-60
2021/05/22 12:10:29;;;;;;;;;;;;;;;19.32;68.00;100949.88;5018697;28;1061;-60
2021/05/22 12:13:00;;;;;;;;;;;;;;;19.34;68.18;100937.19;5019084;28;1033;-59
2021/05/22 12:15:27;;;;;;;;;;;;;;;19.32;68.21;100939.16;5018591;28;1092;-61
2021/05/22 12:17:54;;;;;;;;;;;;;;;19.32;67.92;100939.16;5018653;28;1290;-60
2021/05/22 12:20:21;;;;;;;;;;;;;;;19.33;67.93;100934.63;5018855;28;983;-60
2021/05/22 12:22:47;;;;;;;;;;;;;;;19.33;67.76;100923.91;5018825;28;1910;-59
2021/05/22 12:25:13;;;;;;;;;;;;;;;19.36;68.04;100929.84;5018490;28;1128;-61
2021/05/22 12:27:40;;;;;;;;;;;;;;;19.34;67.88;100915.75;5018704;28;992;-60
2021/05/22 12:30:08;;;;;;;;;;;;;;;19.35;68.26;100905.84;5018750;28;1004;-60
2021/05/22 12:32:34;;;;;;;;;;;;;;;19.39;67.94;100924.22;5018711;28;1869;-60
2021/05/22 12:35:02;;;;;;;;;;;;;;;19.34;68.19;100918.41;5017325;28;1092;-61
2021/05/22 12:37:28;;;;;;;;;;;;;;;19.33;68.35;100900.63;5018253;28;1006;-61
2021/05/22 12:39:57;;;;;;;;;;;;;;;19.34;68.15;100899.66;5018225;28;1037;-60
2021/05/22 12:42:24;;;;;;;;;;;;;;;19.36;68.18;100904.84;5018529;28;1065;-60
2021/05/22 12:44:51;;;;;;;;;;;;;;;19.36;68.22;100897.69;5018423;28;1887;-60
2021/05/22 12:47:21;;;;;;;;;;;;;;;19.36;68.62;100904.84;5018432;28;931;-60
2021/05/22 12:49:51;;;;;;;;;;;;;;;19.36;67.71;100886.94;5017991;28;1076;-60